サンフランシスコ の空港の天気 - METARとTAF

サンフランシスコ国際空港 ( KSFO / SFO ) - アメリカ合衆国 カリフォルニア州サンマテオ郡
飛行場実況気象(Metar)
観測時間09/23 04:56 PDT (09/23 11:56 UTC)
風向・風速西 2m/s
視程10km以上
天気現象
なし
気温12.8℃
湿度74%
気圧1011.9hPa
METARKSFO 231156Z 28004KT 10SM CLR 13/08 A2988 RMK AO2 SLP119 T01280083 10150 20122 58002
過去の天気等 Google飛行場航空写真 Wunderground天気予報

過去48時間のMETAR

飛行場予報(TAF)
発表時間: 9/23 04:28 PDT (9/23 11:28 UTC)
予報対象時間: 23日5時 PDT ~ 24日11時 PDT
風向・風速西 3m/s
視程10km以上
少しの雲 雲底高度 460m
23日8時 PDT から
風向・風速不定 2m/s
視程10km以上
少しの雲 雲底高度 460m
23日15時 PDT から
風向・風速西北西 7m/s
視程10km以上
なし
23日18時 PDT から
風向・風速西北西 8m/s
視程10km以上
なし
23日23時 PDT から
風向・風速西 5m/s
視程10km以上
なし
24日5時 PDT から
風向・風速西 3m/s
視程10km以上
なし
KSFO 231128Z 2312/2418 28005KT P6SM FEW015
FM231500 VRB03KT P6SM FEW015
FM232200 29013KT P6SM SKC
FM240100 29016KT P6SM SKC
FM240600 27009KT P6SM SKC
FM241200 27005KT P6SM SKC